Carlton, MN

11:44 AM CDT on May 25, 2015 (GMT -0500)
Duluth International | | Change Station
CLOSE
Current Station
Airport
Location: Duluth,
Elevation: 1427 ft
Nearby Weather Stations

Elev 1427 ft 46.84 °N, 92.19 °W | Updated 49 minutes ago

Overcast
Overcast
58 °F
Feels Like 58 °F
N
18
Wind Variable Wind from East
Gusts 29 mph

Today
High -- | Low -- °F
--% Chance of Precip.
Yesterday
High -- | Low -- °F
Precip. -- in
5:25 AM 8:49 PM
Waxing Crescent, 50% visible
Pressure 29.70 in
Visibility 6.0 miles
Clouds Overcast 700 ft
Dew Point 55 °F
Humidity 90%
Rainfall 0.60 in
Snow Depth Not available.
UV 3 out of 12
Pollen .90 out of 12
Air Quality Not available.
Flu Activity Sporadic
METAR KDLH 251555Z 08016G25KT 6SM -RA BR OVC007 14/13 A2969 RMK AO2 PK WND 07028/1500 SLP055 P0018 T01440128

More Conditions Fewer Conditions

Pressure 29.70 in
Visibility 6.0 miles
Clouds Overcast 700 ft
Dew Point 55 °F
Humidity 90%
Rainfall 0.60 in
Snow Depth Not available.
UV 3 out of 12
Pollen .90 out of 12
Air Quality Not available.
Flu Activity Sporadic
METAR KDLH 251555Z 08016G25KT 6SM -RA BR OVC007 14/13 A2969 RMK AO2 PK WND 07028/1500 SLP055 P0018 T01440128

More Conditions Fewer Conditions

10-Day Weather Forecast

Almanac

Astronomy

May. 25, 2015 Rise Set
Actual Time
Civil Twilight
Nautical Twilight
Astronomical Twilight
Moon
Length of Visible Light
Length of Day
Tomorrow will be .
, % of the Moon is Illuminated

Today's Extremes

State Highs State Lows

Community

WunderPhotos

Upload Photos

1,824,057 photos uploaded!

WunderBlogs® & News

Nearby

Air Quality

  Air Quality AQ Index Pollutant
Not available.

Snow Depth

Station Depth Elevation

Earthquake Activity

City Distance Mag. Time & Date
Minimum magnitude displayed is 2.5.

Coastal Water Temperatures

Place Temperature

Stations

Nearby Weather Stations

Station Location Temp. Windchill Dew Point Humidity Wind Precip. Elev Updated Type